Flag for France

Past Weather in 41°55'36"N, 8°44'12"E, France — Yesterday and Last 2 Weeks

Currently: 46 °F. Overcast. (Weather station: Ajaccio Airport, France). See more current weather

Past Weather in 41°55'36"N, 8°44'12"E — Graph

°F

41°55'36"N, 8°44'12"E Temperature Yesterday

Maximum temperature yesterday: 57 °F (at 11:00 am)
Minimum temperature yesterday: 43 °F (at 6:30 am)
Average temperature yesterday: 48 °F

High & Low Weather Summary for the Past Weeks

 TemperatureHumidityPressure
High64 °F (Feb 20, 2:00 pm)100% (Feb 10, 2:00 pm)30.48 "Hg (Feb 10, 2:00 pm)
Low41 °F (Feb 15, 5:00 am)52% (Feb 21, 11:00 am)29.21 "Hg (Feb 10, 1:30 pm)
Average53 °F81%29.99 "Hg
* Reported Feb 10 2:00 am — Feb 25 2:30 am, 41°55'36"N, 8°44'12"E. Weather by CustomWeather, © 2024

Note: Actual official high and low records may vary slightly from our data, if they occured in-between our weather recording intervals... More about our weather records

41°55'36"N, 8°44'12"E Weather History for the Previous 24 Hours

Scroll right to see more
 ConditionsComfort  
Time TempWeatherWind HumidityBarometerVisibility
2:30 am
Sun, Feb 25
46 °FMostly cloudy.6 mph93%29.86 "HgN/A
2:00 am46 °FMostly cloudy.5 mph93%29.86 "HgN/A
12:30 am46 °FOvercast.5 mph93%29.86 "HgN/A
12:00 am46 °FMostly cloudy.2 mph87%29.86 "HgN/A
11:30 pm
Sat, Feb 24
46 °FOvercast.3 mph87%29.83 "HgN/A
11:00 pm46 °FMostly cloudy.5 mph87%29.83 "HgN/A
10:30 pm46 °FOvercast.7 mph87%29.83 "HgN/A
10:00 pm46 °FClear.8 mph93%29.83 "Hg10 mi
9:30 pm46 °FPartly cloudy.6 mph93%29.83 "HgN/A
9:00 pm46 °FMostly cloudy.3 mph93%29.83 "HgN/A
8:30 pm46 °FMostly cloudy.3 mph93%29.83 "HgN/A
8:00 pm46 °FPartly cloudy.3 mph93%29.83 "HgN/A
7:30 pm46 °FOvercast.5 mph93%29.83 "HgN/A
7:00 pm46 °FMostly cloudy.3 mph93%29.83 "HgN/A
6:30 pm46 °FPassing clouds.5 mph93%29.80 "HgN/A
6:00 pm48 °FPartly sunny.3 mph87%29.80 "HgN/A
5:30 pm48 °FPartly sunny.5 mph87%29.80 "HgN/A
5:00 pm48 °FOvercast.7 mph87%29.80 "HgN/A
4:30 pm48 °FLight rain. Broken clouds.5 mph87%29.80 "Hg4 mi
4:00 pm48 °FOvercast.10 mph82%29.77 "HgN/A
3:30 pm48 °FMostly cloudy.10 mph82%29.77 "HgN/A
3:00 pm50 °FLight rain. Cloudy.7 mph76%29.77 "HgN/A
2:30 pm50 °FThunderstorms. Partly sunny.13 mph71%29.77 "HgN/A
2:00 pm48 °FMostly cloudy.13 mph82%29.77 "HgN/A
1:30 pm46 °FMore clouds than sun.7 mph87%29.80 "HgN/A
1:00 pm48 °FRain. Fog.23 mph82%29.83 "Hg2 mi
12:30 pm54 °FMostly cloudy.2 mph63%29.77 "HgN/A
12:00 pm54 °FThundershowers. Partly sunny.7 mph63%29.80 "HgN/A
11:30 am55 °FLight rain. Mostly cloudy.10 mph59%29.77 "HgN/A
11:00 am57 °FPartly sunny.7 mph59%29.77 "HgN/A
10:30 am55 °FCool.5 mph67%29.77 "HgN/A
10:00 am52 °FCool.6 mph72%29.77 "HgN/A
9:30 am46 °FPartly sunny.7 mph82%29.80 "HgN/A
9:00 am46 °FSunny.8 mph82%29.77 "Hg10 mi
8:30 am45 °FSunny.7 mph81%29.77 "Hg10 mi
8:00 am45 °FSunny.6 mph81%29.77 "Hg10 mi
7:30 am46 °FPassing clouds.5 mph76%29.77 "HgN/A
7:00 am45 °FPassing clouds.8 mph87%29.77 "HgN/A
6:30 am43 °FPassing clouds.6 mph93%29.77 "HgN/A
6:00 am45 °FPassing clouds.8 mph87%29.77 "HgN/A
5:30 am45 °FPassing clouds.6 mph87%29.77 "HgN/A
5:00 am46 °FPassing clouds.8 mph82%29.77 "HgN/A
4:30 am46 °FPassing clouds.5 mph87%29.77 "HgN/A
4:00 am45 °FClear.6 mph93%29.77 "Hg10 mi
Weather by CustomWeather, © 2024

See weather overview